Rupert, Vermont
Current Conditions -  °F | °C
As of 6:53 PM on Wednesday 22 Oct 2014 (Local Time) from KGFL Reporting Station
Overcast Overcast  
Wind Chill: 11°   Ceiling: 3700
Heat Index: 11°   Visibility: 10mi
Dew Point:   Wind: 13mph
Humidity: 74%   Direction: 360°N
Pressure: 30.03"   Gusts: 18mph
Location:  43.26°N, 73.22°W
Report Text: KGFL 222253Z AUTO 36011G16KT 10SM FEW030 BKN037 OVC047 11/07 A3003 RMK AO2 RAB43E52 SLP171 P0000 T01110067
Loading
Personal Weather Stations






























Interactive Weather Map
Tropical Storm Tracking
New forecast layout! Learn more

10-Day Weather Forecast

Advertisements
Track Severe Weather on mobile